Time;durP1;ratioP1;P1;durP2;ratioP2;P2;SDS_P1;SDS_P2;PMS_P1;PMS_P2;Temp;Humidity;BMP_temperature;BMP_pressure;BME280_temperature;BME280_humidity;BME280_pressure;Samples;Min_cycle;Max_cycle;Signal;HPM_P1;HPM_P2
2023/10/24 00:01:53;;;;;;;14.05;5.95;;;;;;;11.22;100.00;100399.63;6201459;28;20061;-72
2023/10/24 00:04:54;;;;;;;15.23;6.75;;;;;;;11.24;100.00;100396.91;6201471;28;20050;-72
2023/10/24 00:07:56;;;;;;;11.02;5.90;;;;;;;11.21;100.00;100395.28;6201524;28;20058;-72
2023/10/24 00:11:01;;;;;;;19.42;6.72;;;;;;;11.28;100.00;100396.59;6201208;28;20057;-72
2023/10/24 00:14:04;;;;;;;12.75;6.63;;;;;;;11.28;100.00;100387.88;6201536;28;20042;-72
2023/10/24 00:17:05;;;;;;;9.88;5.47;;;;;;;11.27;100.00;100366.00;6201467;28;20461;-73
2023/10/24 00:20:09;;;;;;;11.68;6.57;;;;;;;11.30;100.00;100350.00;6201107;28;20054;-72
2023/10/24 00:23:10;;;;;;;13.05;5.90;;;;;;;11.34;100.00;100346.22;6201186;28;20054;-72
2023/10/24 00:26:11;;;;;;;11.15;6.68;;;;;;;11.34;100.00;100333.06;6201158;28;20056;-72
2023/10/24 00:29:14;;;;;;;13.23;5.95;;;;;;;11.33;100.00;100335.81;6202404;28;20050;-73
2023/10/24 00:32:15;;;;;;;17.25;6.28;;;;;;;11.29;100.00;100339.59;6205810;28;20046;-72
2023/10/24 00:35:17;;;;;;;13.95;6.65;;;;;;;11.27;100.00;100336.22;6205763;28;20362;-72
2023/10/24 00:38:19;;;;;;;10.30;6.38;;;;;;;11.28;100.00;100322.94;6205760;28;20336;-73
2023/10/24 00:41:20;;;;;;;11.13;6.32;;;;;;;11.30;100.00;100317.59;6205707;28;20050;-72
2023/10/24 00:44:23;;;;;;;11.77;6.35;;;;;;;11.29;100.00;100313.28;6205643;28;20062;-72
2023/10/24 00:47:24;;;;;;;15.68;7.25;;;;;;;11.27;100.00;100313.38;6205654;28;20442;-72
2023/10/24 00:50:26;;;;;;;12.85;6.47;;;;;;;11.27;100.00;100316.00;6205257;28;20346;-73
2023/10/24 00:53:27;;;;;;;10.80;6.50;;;;;;;11.26;100.00;100309.03;6205708;28;20061;-73
2023/10/24 00:56:30;;;;;;;12.85;6.93;;;;;;;11.22;100.00;100307.56;6205513;28;20062;-72
2023/10/24 00:59:33;;;;;;;11.48;6.60;;;;;;;11.22;100.00;100304.94;6205206;28;20053;-73
2023/10/24 01:02:35;;;;;;;7.97;5.65;;;;;;;11.22;100.00;100304.06;6205304;28;20051;-73
2023/10/24 01:05:36;;;;;;;10.95;6.35;;;;;;;11.22;100.00;100302.31;6205139;28;20061;-73
2023/10/24 01:08:38;;;;;;;15.48;6.93;;;;;;;11.20;100.00;100300.69;6205071;28;20431;-73
2023/10/24 01:11:39;;;;;;;12.48;6.40;;;;;;;11.22;100.00;100297.06;6204863;28;20057;-72
2023/10/24 01:14:42;;;;;;;8.68;5.30;;;;;;;11.23;100.00;100293.47;6204969;28;20073;-73
2023/10/24 01:17:50;;;;;;;9.98;6.07;;;;;;;11.22;100.00;100293.53;6204984;28;20077;-74
2023/10/24 01:20:52;;;;;;;15.23;6.00;;;;;;;11.22;100.00;100283.91;6205139;28;20050;-73
2023/10/24 01:23:57;;;;;;;9.52;5.75;;;;;;;11.22;100.00;100278.63;6204814;28;20458;-74
2023/10/24 01:26:58;;;;;;;10.65;6.07;;;;;;;11.23;100.00;100269.78;6204717;28;20354;-74
2023/10/24 01:30:00;;;;;;;11.80;6.43;;;;;;;11.19;100.00;100276.19;6204609;28;20049;-73
2023/10/24 01:33:01;;;;;;;10.50;6.22;;;;;;;11.15;100.00;100275.53;6204213;28;20457;-74
2023/10/24 01:36:03;;;;;;;11.73;6.07;;;;;;;11.17;100.00;100267.53;6204770;28;20054;-74
2023/10/24 01:39:07;;;;;;;12.23;6.80;;;;;;;11.18;100.00;100261.34;6204440;28;20046;-74
2023/10/24 01:42:08;;;;;;;12.50;6.30;;;;;;;11.19;100.00;100249.88;6203990;28;20054;-74
2023/10/24 01:45:10;;;;;;;10.52;6.07;;;;;;;11.18;100.00;100246.41;6204211;28;20061;-74
2023/10/24 01:48:11;;;;;;;12.85;6.22;;;;;;;11.19;100.00;100247.25;6204162;28;20042;-74
2023/10/24 01:51:13;;;;;;;12.07;5.90;;;;;;;11.18;100.00;100238.53;6203943;28;20054;-74
2023/10/24 01:54:15;;;;;;;11.63;6.13;;;;;;;11.18;100.00;100245.59;6204339;28;20061;-74
2023/10/24 01:57:17;;;;;;;10.95;6.80;;;;;;;11.16;100.00;100250.06;6203998;28;20348;-74
2023/10/24 02:00:20;;;;;;;10.13;6.15;;;;;;;11.18;100.00;100256.09;6204155;28;20053;-74
2023/10/24 02:03:21;;;;;;;12.48;6.18;;;;;;;11.15;100.00;100249.22;6203876;28;20058;-74
2023/10/24 02:06:22;;;;;;;10.60;6.15;;;;;;;11.16;100.00;100245.66;6203830;28;20046;-74
2023/10/24 02:09:27;;;;;;;11.98;6.15;;;;;;;11.15;100.00;100241.34;6203719;28;20043;-74
2023/10/24 02:12:28;;;;;;;11.93;6.30;;;;;;;11.17;100.00;100231.59;6203469;28;20054;-73
2023/10/24 02:15:30;;;;;;;11.68;5.93;;;;;;;11.16;100.00;100229.03;6202968;28;20061;-75
2023/10/24 02:18:31;;;;;;;11.70;5.47;;;;;;;11.18;100.00;100225.38;6203707;28;20050;-73
2023/10/24 02:21:33;;;;;;;9.15;6.13;;;;;;;11.18;100.00;100228.00;6203307;28;20050;-75
2023/10/24 02:24:36;;;;;;;11.13;6.63;;;;;;;11.15;100.00;100222.94;6203586;28;20050;-75
2023/10/24 02:27:38;;;;;;;11.55;5.75;;;;;;;11.18;100.00;100224.53;6203393;28;20054;-74
2023/10/24 02:30:39;;;;;;;10.50;6.55;;;;;;;11.16;100.00;100214.09;6202929;28;20446;-75
2023/10/24 02:33:40;;;;;;;11.02;5.75;;;;;;;11.17;100.00;100214.94;6203165;28;20050;-76
2023/10/24 02:36:43;;;;;;;14.20;7.22;;;;;;;11.18;100.00;100225.38;6203093;28;20046;-75
2023/10/24 02:39:45;;;;;;;12.10;6.38;;;;;;;11.13;100.00;100218.72;6203158;28;20046;-76
2023/10/24 02:42:47;;;;;;;10.05;6.00;;;;;;;11.12;100.00;100209.13;6202804;28;20050;-75
2023/10/24 02:45:48;;;;;;;10.18;5.38;;;;;;;11.20;100.00;100204.22;6202810;28;20469;-73
2023/10/24 02:48:50;;;;;;;10.55;6.07;;;;;;;11.19;100.00;100192.03;6202687;28;20354;-75
2023/10/24 02:51:51;;;;;;;11.00;6.07;;;;;;;11.19;100.00;100181.50;6202211;28;20058;-75
2023/10/24 02:54:54;;;;;;;10.65;6.13;;;;;;;11.13;100.00;100172.25;6202618;28;20051;-75
2023/10/24 02:57:55;;;;;;;11.45;7.18;;;;;;;11.15;100.00;100180.03;6202872;28;20045;-75
2023/10/24 03:01:03;;;;;;;12.27;6.00;;;;;;;11.15;100.00;100178.22;6202265;28;20446;-75
2023/10/24 03:04:05;;;;;;;10.80;5.80;;;;;;;11.14;100.00;100168.66;6202472;28;20054;-75
2023/10/24 03:07:06;;;;;;;17.80;6.43;;;;;;;11.14;100.00;100167.81;6202510;28;20461;-76
2023/10/24 03:10:10;;;;;;;17.38;7.50;;;;;;;11.12;100.00;100165.28;6202115;28;20054;-76
2023/10/24 03:13:11;;;;;;;15.88;6.90;;;;;;;11.12;100.00;100173.16;6202092;28;20073;-76
2023/10/24 03:16:13;;;;;;;13.00;5.85;;;;;;;11.12;100.00;100172.31;6202280;28;20057;-75
2023/10/24 03:19:14;;;;;;;13.32;7.35;;;;;;;11.12;100.00;100165.28;6202205;28;20042;-75
2023/10/24 03:22:15;;;;;;;15.55;7.10;;;;;;;11.13;100.00;100166.97;6201867;28;20462;-75
2023/10/24 03:25:18;;;;;;;11.40;6.68;;;;;;;11.15;100.00;100165.06;6202181;28;20078;-75
2023/10/24 03:28:20;;;;;;;13.02;6.38;;;;;;;11.16;100.00;100163.28;6219204;28;20053;-74
2023/10/24 03:31:21;;;;;;;11.43;6.75;;;;;;;11.19;100.00;100163.09;6225234;28;20057;-73
2023/10/24 03:34:23;;;;;;;10.60;6.70;;;;;;;11.19;100.00;100171.00;6221313;28;20054;-76
2023/10/24 03:37:24;;;;;;;11.95;6.38;;;;;;;11.15;100.00;100161.59;6202104;28;20047;-73
2023/10/24 03:40:42;;;;;;;11.20;6.53;;;;;;;11.12;100.00;100144.22;6179308;28;20347;-75
2023/10/24 03:43:47;;;;;;;13.10;7.35;;;;;;;11.07;100.00;100145.47;6201912;28;20057;-73
2023/10/24 03:46:49;;;;;;;12.07;6.63;;;;;;;11.09;100.00;100148.88;6201718;28;20062;-73
2023/10/24 03:49:50;;;;;;;10.48;6.47;;;;;;;11.09;100.00;100156.75;6202034;28;20046;-73
2023/10/24 03:52:52;;;;;;;11.65;6.78;;;;;;;11.10;100.00;100153.19;6201398;28;20328;-75
2023/10/24 03:55:58;;;;;;;12.70;6.03;;;;;;;11.10;100.00;100161.06;6201426;28;20072;-75
2023/10/24 03:59:00;;;;;;;9.48;6.07;;;;;;;11.09;100.00;100165.50;6201615;28;20053;-74
2023/10/24 04:02:02;;;;;;;11.50;6.30;;;;;;;11.14;100.00;100167.81;6201192;28;20469;-74
2023/10/24 04:05:06;;;;;;;16.10;7.50;;;;;;;11.10;100.00;100169.78;6204252;28;20050;-74
2023/10/24 04:08:08;;;;;;;12.93;7.28;;;;;;;11.12;100.00;100159.16;6206332;28;20386;-74
2023/10/24 04:11:15;;;;;;;12.27;5.95;;;;;;;11.09;100.00;100146.25;6206270;28;20454;-75
2023/10/24 04:14:17;;;;;;;9.30;6.05;;;;;;;11.10;100.00;100143.50;6206301;28;20443;-74
2023/10/24 04:17:18;;;;;;;8.95;5.80;;;;;;;11.09;100.00;100146.25;6206494;28;20054;-74
2023/10/24 04:20:20;;;;;;;11.57;6.45;;;;;;;11.11;100.00;100134.66;6206160;28;20046;-74
2023/10/24 04:23:21;;;;;;;10.95;6.40;;;;;;;11.12;100.00;100123.19;6206054;28;20057;-74
2023/10/24 04:26:24;;;;;;;10.93;6.25;;;;;;;11.14;100.00;100123.94;6206180;28;20046;-72
2023/10/24 04:29:25;;;;;;;12.00;6.78;;;;;;;11.12;100.00;100127.63;6206227;28;20046;-74
2023/10/24 04:32:27;;;;;;;12.88;6.57;;;;;;;11.15;100.00;100132.69;6205903;28;20061;-72
2023/10/24 04:35:28;;;;;;;11.40;5.85;;;;;;;11.16;100.00;100137.84;6205753;28;20054;-74
2023/10/24 04:38:29;;;;;;;14.43;6.25;;;;;;;11.13;100.00;100145.94;6205938;28;20050;-74
2023/10/24 04:41:32;;;;;;;10.60;6.22;;;;;;;11.13;100.00;100140.69;6205488;28;20058;-73
2023/10/24 04:44:34;;;;;;;7.95;5.53;;;;;;;11.13;100.00;100129.31;6205915;28;20095;-72
2023/10/24 04:47:35;;;;;;;10.85;5.90;;;;;;;11.14;100.00;100137.09;6205536;28;20204;-73
2023/10/24 04:50:38;;;;;;;14.45;6.80;;;;;;;11.13;100.00;100131.94;6205457;28;20053;-73
2023/10/24 04:53:39;;;;;;;13.35;5.93;;;;;;;11.13;100.00;100137.22;6205403;28;20133;-72
2023/10/24 04:56:42;;;;;;;9.38;5.13;;;;;;;11.14;100.00;100141.53;6205679;28;20053;-74
2023/10/24 04:59:43;;;;;;;8.88;5.57;;;;;;;11.15;100.00;100135.31;6205224;28;20054;-74
2023/10/24 05:02:45;;;;;;;8.68;4.88;;;;;;;11.18;100.00;100135.97;6205356;28;20050;-71
2023/10/24 05:05:47;;;;;;;11.05;5.30;;;;;;;11.18;100.00;100135.97;6205309;28;20050;-74
2023/10/24 05:08:49;;;;;;;11.00;5.38;;;;;;;11.18;100.00;100114.09;6204969;28;20068;-73
2023/10/24 05:11:52;;;;;;;9.20;4.88;;;;;;;11.19;100.00;100118.38;6227126;28;20046;-73
2023/10/24 05:14:53;;;;;;;9.77;4.55;;;;;;;11.20;100.00;100116.59;6220409;28;20058;-73
2023/10/24 05:17:54;;;;;;;11.77;5.55;;;;;;;11.19;100.00;100107.88;6229399;28;20053;-73
2023/10/24 05:20:56;;;;;;;10.23;5.55;;;;;;;11.20;100.00;100103.44;6228839;28;20061;-71
2023/10/24 05:23:58;;;;;;;15.70;5.85;;;;;;;11.20;100.00;100100.81;6229254;28;20056;-73
2023/10/24 05:27:01;;;;;;;11.45;4.90;;;;;;;11.18;100.00;100112.28;6229121;28;20045;-73
2023/10/24 05:30:03;;;;;;;9.20;5.13;;;;;;;11.16;100.00;100113.31;6229025;28;20052;-73
2023/10/24 05:33:05;;;;;;;11.60;5.65;;;;;;;11.18;100.00;100116.72;6228460;28;20046;-73
2023/10/24 05:36:07;;;;;;;9.45;5.85;;;;;;;11.16;100.00;100101.00;6229132;28;20057;-73
2023/10/24 05:39:08;;;;;;;6.85;4.72;;;;;;;11.15;100.00;100095.88;6228925;28;20054;-72
2023/10/24 05:42:12;;;;;;;12.25;5.78;;;;;;;11.13;100.00;100106.50;6224919;28;20050;-71
2023/10/24 05:45:13;;;;;;;11.48;5.38;;;;;;;11.11;100.00;100097.84;6225864;28;20049;-74
2023/10/24 05:48:15;;;;;;;10.15;5.60;;;;;;;11.09;100.00;100106.81;6224083;28;20470;-72
2023/10/24 05:51:22;;;;;;;10.45;5.20;;;;;;;11.09;100.00;100107.63;6177705;28;20355;-72
2023/10/24 05:54:23;;;;;;;9.45;5.70;;;;;;;11.11;100.00;100100.47;6193866;28;20469;-72
2023/10/24 05:57:26;;;;;;;12.45;5.53;;;;;;;11.08;100.00;100108.59;6203903;28;20054;-73
2023/10/24 06:00:28;;;;;;;10.50;5.47;;;;;;;11.11;100.00;100113.63;6203818;28;20078;-72
2023/10/24 06:03:30;;;;;;;8.95;5.10;;;;;;;11.12;100.00;100098.69;6202669;28;20062;-72
2023/10/24 06:06:31;;;;;;;7.68;4.57;;;;;;;11.12;100.00;100093.44;6203806;28;20061;-72
2023/10/24 06:09:33;;;;;;;7.45;4.43;;;;;;;11.12;100.00;100094.25;6203810;28;20046;-72
2023/10/24 06:12:35;;;;;;;8.90;4.53;;;;;;;11.13;100.00;100093.34;6203642;28;20046;-72
2023/10/24 06:15:37;;;;;;;6.60;4.40;;;;;;;11.14;100.00;100091.56;6203748;28;20355;-72
2023/10/24 06:18:39;;;;;;;10.55;4.90;;;;;;;11.11;100.00;100089.13;6203696;28;20057;-72
2023/10/24 06:21:40;;;;;;;7.65;4.43;;;;;;;11.15;100.00;100090.59;6203209;28;20050;-72
2023/10/24 06:24:42;;;;;;;7.93;4.63;;;;;;;11.15;100.00;100087.97;6203509;28;20047;-72
2023/10/24 06:27:44;;;;;;;8.02;4.20;;;;;;;11.20;100.00;100085.03;6202450;28;20054;-72
2023/10/24 06:30:46;;;;;;;7.88;4.53;;;;;;;11.23;100.00;100077.78;6203114;28;20044;-72
2023/10/24 06:33:47;;;;;;;7.97;4.80;;;;;;;11.22;100.00;100089.25;6203069;28;20050;-72
2023/10/24 06:36:48;;;;;;;7.60;3.83;;;;;;;11.25;100.00;100086.41;6203323;28;20054;-72
2023/10/24 06:39:50;;;;;;;8.13;4.35;;;;;;;11.29;100.00;100090.53;6202971;28;20054;-72
2023/10/24 06:42:53;;;;;;;6.00;3.28;;;;;;;11.28;100.00;100091.47;6203098;28;20046;-72
2023/10/24 06:45:54;;;;;;;5.30;3.28;;;;;;;11.28;100.00;100099.38;6203116;28;20046;-72
2023/10/24 06:48:55;;;;;;;7.15;3.88;;;;;;;11.29;100.00;100102.84;6202740;28;20402;-73
2023/10/24 06:51:57;;;;;;;5.68;3.45;;;;;;;11.30;100.00;100104.50;6202628;28;20050;-74
2023/10/24 06:54:58;;;;;;;9.23;3.53;;;;;;;11.31;100.00;100108.81;6202616;28;20058;-73
2023/10/24 06:58:01;;;;;;;4.53;3.03;;;;;;;11.32;100.00;100095.59;6202748;28;20046;-72
2023/10/24 07:01:02;;;;;;;8.52;4.10;;;;;;;11.31;100.00;100100.94;6202207;28;20043;-71
2023/10/24 07:04:04;;;;;;;9.05;3.75;;;;;;;11.33;100.00;100088.53;6202403;28;20379;-73
2023/10/24 07:07:06;;;;;;;9.63;4.30;;;;;;;11.31;100.00;100082.53;6202515;28;20046;-73
2023/10/24 07:10:09;;;;;;;8.38;3.40;;;;;;;11.32;100.00;100090.34;6202139;28;20454;-70
2023/10/24 07:13:11;;;;;;;5.03;2.70;;;;;;;11.34;100.00;100095.47;6202012;28;20442;-71
2023/10/24 07:16:14;;;;;;;5.80;3.20;;;;;;;11.38;100.00;100095.16;6202545;28;20050;-73
2023/10/24 07:19:15;;;;;;;5.70;3.70;;;;;;;11.38;100.00;100087.28;6202160;28;20046;-72
2023/10/24 07:22:17;;;;;;;4.50;2.95;;;;;;;11.39;100.00;100094.22;6202031;28;20050;-72
2023/10/24 07:25:19;;;;;;;7.13;3.45;;;;;;;11.40;100.00;100088.03;6202112;28;20057;-73
2023/10/24 07:28:21;;;;;;;11.00;3.95;;;;;;;11.42;100.00;100098.44;6201972;28;20054;-73
2023/10/24 07:31:23;;;;;;;5.35;2.88;;;;;;;11.40;100.00;100098.56;6201724;28;20450;-73
2023/10/24 07:34:25;;;;;;;5.43;3.00;;;;;;;11.41;100.00;100092.34;6201661;28;20085;-72
2023/10/24 07:37:28;;;;;;;9.23;3.40;;;;;;;11.40;100.00;100088.03;6201970;28;20046;-72
2023/10/24 07:40:30;;;;;;;6.35;3.47;;;;;;;11.38;100.00;100095.16;6201520;28;20046;-72
2023/10/24 07:43:32;;;;;;;5.32;2.72;;;;;;;11.45;100.00;100094.78;6202146;28;20054;-72
2023/10/24 07:46:34;;;;;;;7.90;4.00;;;;;;;11.50;100.00;100092.69;6201645;28;20358;-73
2023/10/24 07:49:36;;;;;;;5.38;3.75;;;;;;;11.51;100.00;100102.25;6201642;28;20057;-72
2023/10/24 07:52:37;;;;;;;11.55;4.38;;;;;;;11.48;100.00;100079.59;6201962;28;20101;-72
2023/10/24 07:55:39;;;;;;;8.13;4.72;;;;;;;11.48;100.00;100076.97;6201560;28;20065;-72
2023/10/24 07:58:41;;;;;;;7.88;2.97;;;;;;;11.51;100.00;100079.41;6201556;28;20057;-72
2023/10/24 08:01:43;;;;;;;5.65;3.38;;;;;;;11.57;100.00;100080.78;6201183;28;20066;-73
2023/10/24 08:04:44;;;;;;;4.03;2.72;;;;;;;11.57;100.00;100086.88;6201547;28;20050;-72
2023/10/24 08:07:45;;;;;;;4.22;3.10;;;;;;;11.66;100.00;100080.13;6201420;28;20053;-72
2023/10/24 08:10:47;;;;;;;7.47;3.35;;;;;;;11.69;100.00;100079.94;6201147;28;20403;-73
2023/10/24 08:13:49;;;;;;;9.25;3.08;;;;;;;11.70;100.00;100076.34;6201291;28;20054;-73
2023/10/24 08:16:51;;;;;;;4.40;2.78;;;;;;;11.74;100.00;100080.47;6201585;28;20054;-73
2023/10/24 08:19:52;;;;;;;4.88;2.92;;;;;;;11.73;100.00;100085.84;6201324;28;20050;-73
2023/10/24 08:22:54;;;;;;;5.32;2.65;;;;;;;11.79;100.00;100075.72;6201417;28;20053;-73
2023/10/24 08:25:56;;;;;;;5.25;2.42;;;;;;;11.78;100.00;100073.19;6201361;28;20054;-71
2023/10/24 08:28:59;;;;;;;3.15;2.35;;;;;;;11.80;100.00;100079.19;6201190;28;20494;-71
2023/10/24 08:32:00;;;;;;;3.75;2.78;;;;;;;11.83;100.00;100090.38;6201025;28;20050;-71
2023/10/24 08:35:03;;;;;;;5.65;2.97;;;;;;;11.88;100.00;100076.91;6201049;28;20446;-71
2023/10/24 08:38:05;;;;;;;3.80;2.42;;;;;;;11.80;100.00;100080.03;6201288;28;20133;-71
2023/10/24 08:41:06;;;;;;;3.78;2.92;;;;;;;11.83;100.00;100090.38;6200916;28;20049;-71
2023/10/24 08:44:11;;;;;;;7.55;3.33;;;;;;;11.89;100.00;100089.13;6201357;28;20083;-71
2023/10/24 08:47:14;;;;;;;13.07;4.85;;;;;;;11.83;100.00;100087.75;6200964;28;20090;-71
2023/10/24 08:50:16;;;;;;;6.07;3.40;;;;;;;11.87;100.00;100088.41;6202162;28;20042;-71
2023/10/24 08:53:17;;;;;;;6.38;2.78;;;;;;;11.87;100.00;100089.22;6205273;28;20050;-71
2023/10/24 08:56:19;;;;;;;5.10;2.78;;;;;;;11.87;100.00;100073.44;6205773;28;20050;-73
2023/10/24 08:59:26;;;;;;;4.88;2.45;;;;;;;11.86;100.00;100082.28;6205351;28;20439;-73
2023/10/24 09:02:27;;;;;;;3.38;2.22;;;;;;;11.87;100.00;100093.66;6205397;28;20046;-74
2023/10/24 09:05:29;;;;;;;4.47;2.20;;;;;;;11.97;100.00;100085.97;6205349;28;20051;-73
2023/10/24 09:08:30;;;;;;;3.13;2.25;;;;;;;11.97;100.00;100089.44;6203953;28;20051;-73
2023/10/24 09:11:52;;;;;;;4.03;2.38;;;;;;;12.03;100.00;100089.00;6203848;28;20457;-73
2023/10/24 09:14:54;;;;;;;3.53;1.85;;;;;;;12.07;100.00;100089.63;6202334;28;20047;-72
2023/10/24 09:17:56;;;;;;;8.18;2.30;;;;;;;12.04;100.00;100088.06;6204807;28;20050;-73
2023/10/24 09:20:57;;;;;;;2.97;1.88;;;;;;;12.07;100.00;100081.72;6196454;28;20347;-71
2023/10/24 09:23:59;;;;;;;4.68;1.80;;;;;;;12.08;100.00;100075.50;6204541;28;20058;-74
2023/10/24 09:27:01;;;;;;;2.20;1.63;;;;;;;12.11;100.00;100075.28;6196560;28;20054;-71
2023/10/24 09:30:11;;;;;;;6.18;2.00;;;;;;;12.15;100.00;100080.25;6200136;28;20529;-72
2023/10/24 09:33:12;;;;;;;4.05;2.05;;;;;;;12.17;100.00;100090.66;6191150;28;20058;-75
2023/10/24 09:36:24;;;;;;;4.95;2.22;;;;;;;12.16;100.00;100092.44;6196818;28;20069;-74
2023/10/24 09:39:25;;;;;;;5.50;2.42;;;;;;;12.19;100.00;100102.78;6196210;28;20436;-73
2023/10/24 09:42:28;;;;;;;4.97;2.40;;;;;;;12.15;100.00;100098.69;6183841;28;20053;-74
2023/10/24 09:45:33;;;;;;;2.67;1.90;;;;;;;12.19;100.00;100094.88;6180199;28;20055;-73
2023/10/24 09:48:36;;;;;;;4.38;1.88;;;;;;;12.19;100.00;100102.78;6192304;28;20423;-73
2023/10/24 09:51:39;;;;;;;2.22;1.67;;;;;;;12.23;100.00;100108.69;6182351;28;20053;-73
2023/10/24 09:54:41;;;;;;;3.25;2.05;;;;;;;12.27;100.00;100109.31;6180194;28;20054;-73
2023/10/24 09:57:44;;;;;;;6.85;2.90;;;;;;;12.26;100.00;100100.53;6180521;28;20053;-72
2023/10/24 10:00:48;;;;;;;3.35;2.10;;;;;;;12.25;100.00;100098.88;6179798;28;20055;-72
2023/10/24 10:03:51;;;;;;;5.30;2.30;;;;;;;12.15;100.00;100103.09;6179877;28;20067;-73
2023/10/24 10:06:55;;;;;;;4.82;2.20;;;;;;;12.11;100.00;100105.09;6182936;28;20050;-72
2023/10/24 10:09:59;;;;;;;11.55;4.53;;;;;;;12.12;100.00;100103.31;6200585;28;20051;-75
2023/10/24 10:13:04;;;;;;;9.90;4.97;;;;;;;12.08;100.00;100115.88;6196295;28;20053;-74
2023/10/24 10:16:29;;;;;;;5.93;3.05;;;;;;;12.07;100.00;100105.44;6195827;28;20145;-75
2023/10/24 10:20:01;;;;;;;6.25;2.72;;;;;;;12.04;100.00;100101.22;6203765;28;20054;-74
2023/10/24 10:23:14;;;;;;;2.67;2.08;;;;;;;11.97;100.00;100099.13;6203372;28;20053;-75
2023/10/24 10:26:23;;;;;;;5.82;1.48;;;;;;;11.93;100.00;100086.16;6203588;28;20046;-74
2023/10/24 10:29:37;;;;;;;1.85;1.50;;;;;;;11.93;100.00;100085.31;6203340;28;20046;-74
2023/10/24 10:32:47;;;;;;;3.47;1.42;;;;;;;11.92;100.00;100065.22;6203273;28;20054;-74
2023/10/24 10:35:51;;;;;;;3.90;1.63;;;;;;;11.89;100.00;100054.88;6195598;28;20062;-75
2023/10/24 10:38:54;;;;;;;3.35;1.65;;;;;;;11.88;100.00;100053.22;6201610;28;20469;-73
2023/10/24 10:41:56;;;;;;;2.13;1.38;;;;;;;11.93;100.00;100040.56;6202588;28;20050;-74
2023/10/24 10:44:58;;;;;;;5.00;1.83;;;;;;;11.98;100.00;100040.25;6202929;28;20435;-74
2023/10/24 10:48:04;;;;;;;3.10;1.75;;;;;;;11.94;100.00;100039.59;6202723;28;20057;-74
2023/10/24 10:51:06;;;;;;;2.05;1.55;;;;;;;12.03;100.00;100049.50;6196308;28;20137;-77
2023/10/24 10:54:19;;;;;;;4.20;1.55;;;;;;;12.04;100.00;100053.00;6192840;28;20104;-73
2023/10/24 10:57:28;;;;;;;4.10;1.20;;;;;;;12.12;100.00;100064.63;6202773;28;20324;-73
2023/10/24 11:00:38;;;;;;;4.60;1.90;;;;;;;12.09;100.00;100056.97;6202222;28;20374;-73
2023/10/24 11:03:43;;;;;;;1.60;1.20;;;;;;;12.15;100.00;100061.81;6202748;28;20050;-73
2023/10/24 11:06:51;;;;;;;2.15;1.30;;;;;;;12.21;100.00;100057.88;6202583;28;20439;-73
2023/10/24 11:09:52;;;;;;;3.55;1.85;;;;;;;12.30;100.00;100049.31;6201603;28;20054;-73
2023/10/24 11:12:54;;;;;;;1.85;1.50;;;;;;;12.34;100.00;100045.53;6199229;28;20046;-74
2023/10/24 11:15:55;;;;;;;3.92;1.58;;;;;;;12.42;100.00;100045.81;6188975;28;20073;-74
2023/10/24 11:18:58;;;;;;;4.05;1.70;;;;;;;12.53;100.00;100054.72;6202218;28;20050;-74
2023/10/24 11:21:59;;;;;;;4.90;1.90;;;;;;;12.55;100.00;100052.84;6200336;28;20051;-75
2023/10/24 11:25:01;;;;;;;3.38;1.63;;;;;;;12.57;100.00;100041.22;6193813;28;20123;-74
2023/10/24 11:28:07;;;;;;;4.20;2.17;;;;;;;12.56;100.00;100039.53;6192914;28;20050;-76
2023/10/24 11:31:22;;;;;;;2.78;1.90;;;;;;;12.58;100.00;100036.78;6193561;28;20042;-74
2023/10/24 11:34:25;;;;;;;2.58;1.75;;;;;;;12.56;100.00;100030.78;6197545;28;20057;-71
2023/10/24 11:37:28;;;;;;;2.42;1.73;;;;;;;12.58;100.00;100028.88;6201931;28;20089;-74
2023/10/24 11:40:30;;;;;;;1.88;1.48;;;;;;;12.55;100.00;100029.97;6190030;28;20054;-74
2023/10/24 11:43:32;;;;;;;4.15;1.60;;;;;;;12.57;100.00;100006.94;6177620;28;20054;-72
2023/10/24 11:46:38;;;;;;;3.78;1.83;;;;;;;12.57;100.00;100006.94;6187476;28;20053;-74
2023/10/24 11:49:40;;;;;;;2.97;1.92;;;;;;;12.61;100.00;99997.03;6201712;28;20359;-73
2023/10/24 11:52:42;;;;;;;5.90;1.85;;;;;;;12.61;100.00;100000.50;6201407;28;20047;-74
2023/10/24 11:55:43;;;;;;;3.60;1.80;;;;;;;12.62;100.00;99994.28;6196341;28;20061;-74
2023/10/24 11:58:46;;;;;;;4.80;1.60;;;;;;;12.65;100.00;99987.94;6178949;28;20410;-73
2023/10/24 12:01:47;;;;;;;3.13;1.55;;;;;;;12.65;100.00;99987.94;6177212;28;20359;-73
2023/10/24 12:04:50;;;;;;;2.15;1.38;;;;;;;12.65;100.00;99998.50;6177485;28;20058;-73
2023/10/24 12:07:53;;;;;;;4.82;1.40;;;;;;;12.63;100.00;99995.97;6177707;28;20055;-73
2023/10/24 12:10:55;;;;;;;1.60;1.40;;;;;;;12.63;100.00;99989.88;6177196;28;20051;-73
2023/10/24 12:13:57;;;;;;;2.78;1.60;;;;;;;12.64;100.00;99984.47;6190562;28;20050;-73
2023/10/24 12:16:59;;;;;;;4.65;1.98;;;;;;;12.64;100.00;99983.63;6201565;28;20057;-74
2023/10/24 12:20:01;;;;;;;4.78;1.83;;;;;;;12.65;100.00;99987.94;6193157;28;20056;-74
2023/10/24 12:23:03;;;;;;;3.15;1.52;;;;;;;12.66;100.00;99992.25;6201332;28;20043;-73
2023/10/24 12:26:05;;;;;;;2.08;1.40;;;;;;;12.64;100.00;99992.38;6203883;28;20050;-72
2023/10/24 12:29:09;;;;;;;2.25;1.02;;;;;;;12.64;100.00;99999.44;6206375;28;20053;-73
2023/10/24 12:32:11;;;;;;;4.80;1.40;;;;;;;12.63;100.00;99997.78;6206239;28;20090;-73
2023/10/24 12:35:13;;;;;;;5.53;1.50;;;;;;;12.62;100.00;99994.28;6205908;28;20076;-73
2023/10/24 12:38:15;;;;;;;3.10;1.50;;;;;;;12.65;100.00;99995.84;6204640;28;20351;-73
2023/10/24 12:41:16;;;;;;;1.45;1.10;;;;;;;12.57;100.00;99993.78;6181706;28;20051;-73
2023/10/24 12:44:18;;;;;;;2.15;1.33;;;;;;;12.59;100.00;99976.06;6181481;28;20328;-74
2023/10/24 12:47:20;;;;;;;1.25;1.05;;;;;;;12.60;100.00;99977.75;6196758;28;20465;-73
2023/10/24 12:50:23;;;;;;;2.03;1.20;;;;;;;12.74;100.00;99967.97;6205243;28;20058;-73
2023/10/24 12:53:25;;;;;;;3.72;1.50;;;;;;;12.72;100.00;99968.09;6205273;28;20049;-73
2023/10/24 12:56:26;;;;;;;3.10;1.42;;;;;;;12.74;100.00;99968.81;6205775;28;20053;-72
2023/10/24 12:59:29;;;;;;;1.98;1.25;;;;;;;12.74;100.00;99960.06;6205338;28;20442;-73
2023/10/24 13:02:30;;;;;;;1.83;1.30;;;;;;;12.74;100.00;99953.00;6205426;28;20057;-73
2023/10/24 13:05:33;;;;;;;2.30;1.40;;;;;;;12.73;100.00;99956.59;6205327;28;20047;-72
2023/10/24 13:08:34;;;;;;;11.85;1.83;;;;;;;12.71;100.00;99963.75;6205504;28;20054;-71
2023/10/24 13:11:41;;;;;;;3.72;1.40;;;;;;;12.67;100.00;99959.66;6204718;28;20439;-73
2023/10/24 13:14:43;;;;;;;3.33;1.50;;;;;;;12.64;100.00;99966.03;6205530;28;20069;-73
2023/10/24 13:17:44;;;;;;;2.38;1.00;;;;;;;12.63;100.00;99966.97;6204114;28;20046;-72
2023/10/24 13:20:47;;;;;;;3.33;1.60;;;;;;;12.62;100.00;99961.81;6196598;28;20057;-73
2023/10/24 13:23:48;;;;;;;3.85;1.70;;;;;;;12.63;100.00;99972.25;6196542;28;20045;-72
2023/10/24 13:26:50;;;;;;;2.60;1.58;;;;;;;12.60;100.00;99967.19;6204648;28;20050;-73
2023/10/24 13:29:52;;;;;;;5.70;2.53;;;;;;;12.60;100.00;99974.28;6197637;28;20055;-73
2023/10/24 13:32:53;;;;;;;6.35;1.98;;;;;;;12.59;100.00;99965.53;6204090;28;20411;-72
2023/10/24 13:35:56;;;;;;;4.35;1.48;;;;;;;12.55;100.00;99952.69;6203991;28;20099;-73
2023/10/24 13:38:58;;;;;;;3.80;1.98;;;;;;;12.56;100.00;99955.19;6195154;28;20050;-72
2023/10/24 13:41:59;;;;;;;3.28;1.77;;;;;;;12.56;100.00;99964.91;6204254;28;20050;-73
2023/10/24 13:45:01;;;;;;;8.05;2.22;;;;;;;12.54;100.00;99957.13;6204379;28;20057;-72
2023/10/24 13:48:03;;;;;;;4.05;1.80;;;;;;;12.56;100.00;99959.63;6204335;28;20054;-73
2023/10/24 13:51:05;;;;;;;2.95;1.52;;;;;;;12.54;100.00;99957.13;6204132;28;20061;-73
2023/10/24 13:54:07;;;;;;;2.88;1.48;;;;;;;12.54;100.00;99949.22;6204202;28;20174;-72
2023/10/24 13:57:08;;;;;;;3.58;1.60;;;;;;;12.53;100.00;99959.84;6204372;28;20057;-71